sensor_id;sensor_type;location;lat;lon;timestamp;P1;durP1;ratioP1;P2;durP2;ratioP2
52057;SDS011;38063;53.210;6.504;2022-10-31T00:00:50;29.92;;;12.88;;
52057;SDS011;38063;53.210;6.504;2022-10-31T00:03:16;24.75;;;13.05;;
52057;SDS011;38063;53.210;6.504;2022-10-31T00:05:46;23.60;;;12.10;;
52057;SDS011;38063;53.210;6.504;2022-10-31T00:08:13;27.00;;;12.65;;
52057;SDS011;38063;53.210;6.504;2022-10-31T00:10:40;24.08;;;13.00;;
52057;SDS011;38063;53.210;6.504;2022-10-31T00:13:07;27.08;;;11.90;;
52057;SDS011;38063;53.210;6.504;2022-10-31T00:15:34;25.40;;;12.10;;
52057;SDS011;38063;53.210;6.504;2022-10-31T00:18:00;28.13;;;11.55;;
52057;SDS011;38063;53.210;6.504;2022-10-31T00:20:26;24.08;;;12.18;;
52057;SDS011;38063;53.210;6.504;2022-10-31T00:22:52;22.88;;;11.65;;
52057;SDS011;38063;53.210;6.504;2022-10-31T00:25:17;24.50;;;12.13;;
52057;SDS011;38063;53.210;6.504;2022-10-31T00:27:45;20.85;;;11.70;;
52057;SDS011;38063;53.210;6.504;2022-10-31T00:30:11;19.27;;;12.65;;
52057;SDS011;38063;53.210;6.504;2022-10-31T00:32:37;20.30;;;12.18;;
52057;SDS011;38063;53.210;6.504;2022-10-31T00:35:02;21.90;;;11.75;;
52057;SDS011;38063;53.210;6.504;2022-10-31T00:37:28;19.77;;;12.32;;
52057;SDS011;38063;53.210;6.504;2022-10-31T00:39:54;24.73;;;12.80;;
52057;SDS011;38063;53.210;6.504;2022-10-31T00:42:19;24.17;;;13.98;;
52057;SDS011;38063;53.210;6.504;2022-10-31T00:44:45;24.58;;;11.73;;
52057;SDS011;38063;53.210;6.504;2022-10-31T00:47:10;21.27;;;12.23;;
52057;SDS011;38063;53.210;6.504;2022-10-31T00:49:36;22.88;;;13.40;;
52057;SDS011;38063;53.210;6.504;2022-10-31T00:52:02;27.75;;;13.15;;
52057;SDS011;38063;53.210;6.504;2022-10-31T00:54:27;19.05;;;12.35;;
52057;SDS011;38063;53.210;6.504;2022-10-31T00:56:53;23.83;;;12.80;;
52057;SDS011;38063;53.210;6.504;2022-10-31T00:59:18;19.48;;;12.43;;
52057;SDS011;38063;53.210;6.504;2022-10-31T01:01:44;21.45;;;12.55;;
52057;SDS011;38063;53.210;6.504;2022-10-31T01:04:10;21.90;;;12.45;;
52057;SDS011;38063;53.210;6.504;2022-10-31T01:06:35;24.85;;;13.27;;
52057;SDS011;38063;53.210;6.504;2022-10-31T01:09:01;25.52;;;13.75;;
52057;SDS011;38063;53.210;6.504;2022-10-31T01:11:26;26.75;;;15.07;;
52057;SDS011;38063;53.210;6.504;2022-10-31T01:13:52;26.48;;;14.50;;
52057;SDS011;38063;53.210;6.504;2022-10-31T01:16:19;27.27;;;15.85;;
52057;SDS011;38063;53.210;6.504;2022-10-31T01:18:47;29.27;;;16.25;;
52057;SDS011;38063;53.210;6.504;2022-10-31T01:21:20;31.88;;;16.42;;
52057;SDS011;38063;53.210;6.504;2022-10-31T01:23:47;30.92;;;15.52;;
52057;SDS011;38063;53.210;6.504;2022-10-31T01:26:14;32.35;;;16.23;;
52057;SDS011;38063;53.210;6.504;2022-10-31T01:31:12;31.00;;;16.02;;
52057;SDS011;38063;53.210;6.504;2022-10-31T01:33:37;29.38;;;16.30;;
52057;SDS011;38063;53.210;6.504;2022-10-31T01:38:46;28.83;;;15.57;;
52057;SDS011;38063;53.210;6.504;2022-10-31T01:41:14;22.70;;;14.52;;
52057;SDS011;38063;53.210;6.504;2022-10-31T01:46:11;23.42;;;14.50;;
52057;SDS011;38063;53.210;6.504;2022-10-31T01:48:37;27.58;;;15.15;;
52057;SDS011;38063;53.210;6.504;2022-10-31T01:51:05;24.85;;;15.07;;
52057;SDS011;38063;53.210;6.504;2022-10-31T01:53:31;27.27;;;15.18;;
52057;SDS011;38063;53.210;6.504;2022-10-31T01:55:58;24.40;;;14.90;;
52057;SDS011;38063;53.210;6.504;2022-10-31T01:58:25;26.13;;;15.60;;
52057;SDS011;38063;53.210;6.504;2022-10-31T02:00:55;30.95;;;14.98;;
52057;SDS011;38063;53.210;6.504;2022-10-31T02:03:24;25.88;;;14.30;;
52057;SDS011;38063;53.210;6.504;2022-10-31T02:05:52;22.02;;;13.65;;
52057;SDS011;38063;53.210;6.504;2022-10-31T02:10:52;25.30;;;14.35;;
52057;SDS011;38063;53.210;6.504;2022-10-31T02:13:19;28.50;;;14.75;;
52057;SDS011;38063;53.210;6.504;2022-10-31T02:15:47;25.10;;;14.82;;
52057;SDS011;38063;53.210;6.504;2022-10-31T02:18:17;24.17;;;14.32;;
52057;SDS011;38063;53.210;6.504;2022-10-31T02:26:31;26.35;;;14.60;;
52057;SDS011;38063;53.210;6.504;2022-10-31T02:34:37;29.92;;;15.95;;
52057;SDS011;38063;53.210;6.504;2022-10-31T02:39:59;19.73;;;13.13;;
52057;SDS011;38063;53.210;6.504;2022-10-31T02:42:40;28.25;;;15.95;;
52057;SDS011;38063;53.210;6.504;2022-10-31T02:45:48;26.48;;;13.43;;
52057;SDS011;38063;53.210;6.504;2022-10-31T02:48:28;29.67;;;14.93;;
52057;SDS011;38063;53.210;6.504;2022-10-31T02:51:01;26.58;;;14.55;;
52057;SDS011;38063;53.210;6.504;2022-10-31T02:53:32;26.65;;;14.13;;
52057;SDS011;38063;53.210;6.504;2022-10-31T02:56:01;25.73;;;15.13;;
52057;SDS011;38063;53.210;6.504;2022-10-31T02:58:49;31.83;;;15.52;;
52057;SDS011;38063;53.210;6.504;2022-10-31T03:12:03;26.90;;;14.50;;
52057;SDS011;38063;53.210;6.504;2022-10-31T03:17:07;23.58;;;15.45;;
52057;SDS011;38063;53.210;6.504;2022-10-31T03:19:55;30.60;;;15.48;;
52057;SDS011;38063;53.210;6.504;2022-10-31T03:22:26;33.72;;;16.92;;
52057;SDS011;38063;53.210;6.504;2022-10-31T03:24:54;26.80;;;15.55;;
52057;SDS011;38063;53.210;6.504;2022-10-31T03:27:23;27.85;;;16.08;;
52057;SDS011;38063;53.210;6.504;2022-10-31T03:29:50;30.02;;;15.30;;
52057;SDS011;38063;53.210;6.504;2022-10-31T03:32:41;28.63;;;14.98;;
52057;SDS011;38063;53.210;6.504;2022-10-31T03:35:25;29.52;;;16.20;;
52057;SDS011;38063;53.210;6.504;2022-10-31T03:37:53;30.20;;;16.17;;
52057;SDS011;38063;53.210;6.504;2022-10-31T03:40:20;27.42;;;15.45;;
52057;SDS011;38063;53.210;6.504;2022-10-31T03:42:54;26.40;;;14.80;;
52057;SDS011;38063;53.210;6.504;2022-10-31T03:47:51;29.50;;;16.65;;
52057;SDS011;38063;53.210;6.504;2022-10-31T03:50:18;26.35;;;15.27;;
52057;SDS011;38063;53.210;6.504;2022-10-31T03:52:51;26.50;;;15.48;;
52057;SDS011;38063;53.210;6.504;2022-10-31T03:55:29;34.72;;;16.65;;
52057;SDS011;38063;53.210;6.504;2022-10-31T03:58:03;27.88;;;15.07;;
52057;SDS011;38063;53.210;6.504;2022-10-31T04:00:40;28.75;;;16.02;;
52057;SDS011;38063;53.210;6.504;2022-10-31T04:05:37;31.38;;;17.45;;
52057;SDS011;38063;53.210;6.504;2022-10-31T04:08:04;32.13;;;17.98;;
52057;SDS011;38063;53.210;6.504;2022-10-31T04:10:35;31.08;;;17.10;;
52057;SDS011;38063;53.210;6.504;2022-10-31T04:13:05;27.98;;;16.50;;
52057;SDS011;38063;53.210;6.504;2022-10-31T04:15:35;29.95;;;16.70;;
52057;SDS011;38063;53.210;6.504;2022-10-31T04:18:03;30.10;;;15.57;;
52057;SDS011;38063;53.210;6.504;2022-10-31T04:20:33;30.88;;;17.40;;
52057;SDS011;38063;53.210;6.504;2022-10-31T04:23:00;25.90;;;15.63;;
52057;SDS011;38063;53.210;6.504;2022-10-31T04:25:27;29.77;;;16.65;;
52057;SDS011;38063;53.210;6.504;2022-10-31T04:27:53;30.48;;;17.13;;
52057;SDS011;38063;53.210;6.504;2022-10-31T04:30:19;28.35;;;16.17;;
52057;SDS011;38063;53.210;6.504;2022-10-31T04:32:44;25.17;;;15.27;;
52057;SDS011;38063;53.210;6.504;2022-10-31T04:35:10;26.08;;;15.82;;
52057;SDS011;38063;53.210;6.504;2022-10-31T04:37:35;31.50;;;16.35;;
52057;SDS011;38063;53.210;6.504;2022-10-31T04:40:01;26.38;;;15.35;;
52057;SDS011;38063;53.210;6.504;2022-10-31T04:42:30;35.67;;;17.60;;
52057;SDS011;38063;53.210;6.504;2022-10-31T04:44:56;29.73;;;16.48;;
52057;SDS011;38063;53.210;6.504;2022-10-31T04:47:21;33.95;;;17.63;;
52057;SDS011;38063;53.210;6.504;2022-10-31T04:49:47;33.25;;;17.45;;
52057;SDS011;38063;53.210;6.504;2022-10-31T04:52:13;29.80;;;16.15;;
52057;SDS011;38063;53.210;6.504;2022-10-31T04:54:38;29.73;;;16.88;;
52057;SDS011;38063;53.210;6.504;2022-10-31T04:57:04;27.30;;;16.85;;
52057;SDS011;38063;53.210;6.504;2022-10-31T04:59:30;29.98;;;16.45;;
52057;SDS011;38063;53.210;6.504;2022-10-31T05:01:55;33.95;;;17.67;;
52057;SDS011;38063;53.210;6.504;2022-10-31T05:04:21;28.98;;;16.92;;
52057;SDS011;38063;53.210;6.504;2022-10-31T05:06:46;34.50;;;19.65;;
52057;SDS011;38063;53.210;6.504;2022-10-31T05:09:12;32.13;;;17.63;;
52057;SDS011;38063;53.210;6.504;2022-10-31T05:11:38;31.40;;;17.40;;
52057;SDS011;38063;53.210;6.504;2022-10-31T05:14:03;40.38;;;17.27;;
52057;SDS011;38063;53.210;6.504;2022-10-31T05:16:29;33.75;;;17.10;;
52057;SDS011;38063;53.210;6.504;2022-10-31T05:18:55;30.80;;;16.05;;
52057;SDS011;38063;53.210;6.504;2022-10-31T05:21:20;33.33;;;16.00;;
52057;SDS011;38063;53.210;6.504;2022-10-31T05:23:46;31.05;;;16.63;;
52057;SDS011;38063;53.210;6.504;2022-10-31T05:26:12;28.13;;;16.52;;
52057;SDS011;38063;53.210;6.504;2022-10-31T05:28:37;32.50;;;16.60;;
52057;SDS011;38063;53.210;6.504;2022-10-31T05:31:03;28.70;;;15.43;;
52057;SDS011;38063;53.210;6.504;2022-10-31T05:33:29;31.27;;;17.35;;
52057;SDS011;38063;53.210;6.504;2022-10-31T05:35:54;29.70;;;18.17;;
52057;SDS011;38063;53.210;6.504;2022-10-31T05:38:20;38.15;;;18.50;;
52057;SDS011;38063;53.210;6.504;2022-10-31T05:40:45;33.85;;;17.02;;
52057;SDS011;38063;53.210;6.504;2022-10-31T05:43:11;30.80;;;15.63;;
52057;SDS011;38063;53.210;6.504;2022-10-31T05:45:37;31.42;;;16.50;;
52057;SDS011;38063;53.210;6.504;2022-10-31T05:48:02;31.58;;;17.08;;
52057;SDS011;38063;53.210;6.504;2022-10-31T05:50:29;26.35;;;16.02;;
52057;SDS011;38063;53.210;6.504;2022-10-31T05:52:57;27.90;;;16.52;;
52057;SDS011;38063;53.210;6.504;2022-10-31T05:55:24;26.20;;;16.20;;
52057;SDS011;38063;53.210;6.504;2022-10-31T05:57:51;28.95;;;16.38;;
52057;SDS011;38063;53.210;6.504;2022-10-31T06:00:17;36.17;;;16.95;;
52057;SDS011;38063;53.210;6.504;2022-10-31T06:02:44;28.35;;;16.33;;
52057;SDS011;38063;53.210;6.504;2022-10-31T06:05:09;34.13;;;17.23;;
52057;SDS011;38063;53.210;6.504;2022-10-31T06:07:35;30.92;;;17.08;;
52057;SDS011;38063;53.210;6.504;2022-10-31T06:10:02;29.77;;;16.75;;
52057;SDS011;38063;53.210;6.504;2022-10-31T06:12:30;31.70;;;17.42;;
52057;SDS011;38063;53.210;6.504;2022-10-31T06:14:55;28.42;;;15.98;;
52057;SDS011;38063;53.210;6.504;2022-10-31T06:17:21;29.83;;;16.70;;
52057;SDS011;38063;53.210;6.504;2022-10-31T06:19:46;31.20;;;17.25;;
52057;SDS011;38063;53.210;6.504;2022-10-31T06:22:12;22.85;;;15.30;;
52057;SDS011;38063;53.210;6.504;2022-10-31T06:24:38;26.75;;;17.10;;
52057;SDS011;38063;53.210;6.504;2022-10-31T06:27:04;31.73;;;17.85;;
52057;SDS011;38063;53.210;6.504;2022-10-31T06:29:30;28.98;;;16.05;;
52057;SDS011;38063;53.210;6.504;2022-10-31T06:31:56;31.15;;;17.00;;
52057;SDS011;38063;53.210;6.504;2022-10-31T06:34:21;29.80;;;17.02;;
52057;SDS011;38063;53.210;6.504;2022-10-31T06:36:47;32.00;;;18.30;;
52057;SDS011;38063;53.210;6.504;2022-10-31T06:39:13;36.47;;;19.17;;
52057;SDS011;38063;53.210;6.504;2022-10-31T06:41:39;29.30;;;18.58;;
52057;SDS011;38063;53.210;6.504;2022-10-31T06:44:06;30.90;;;18.02;;
52057;SDS011;38063;53.210;6.504;2022-10-31T06:46:32;35.05;;;19.42;;
52057;SDS011;38063;53.210;6.504;2022-10-31T06:48:58;28.67;;;18.35;;
52057;SDS011;38063;53.210;6.504;2022-10-31T06:51:24;36.95;;;20.23;;
52057;SDS011;38063;53.210;6.504;2022-10-31T06:53:50;33.20;;;18.10;;
52057;SDS011;38063;53.210;6.504;2022-10-31T06:56:16;34.90;;;19.65;;
52057;SDS011;38063;53.210;6.504;2022-10-31T06:58:41;33.08;;;19.92;;
52057;SDS011;38063;53.210;6.504;2022-10-31T07:01:07;33.30;;;19.15;;
52057;SDS011;38063;53.210;6.504;2022-10-31T07:03:32;35.28;;;20.17;;
52057;SDS011;38063;53.210;6.504;2022-10-31T07:05:58;38.15;;;20.33;;
52057;SDS011;38063;53.210;6.504;2022-10-31T07:08:24;30.75;;;18.30;;
52057;SDS011;38063;53.210;6.504;2022-10-31T07:10:50;29.98;;;19.17;;
52057;SDS011;38063;53.210;6.504;2022-10-31T07:13:17;33.83;;;18.92;;
52057;SDS011;38063;53.210;6.504;2022-10-31T07:15:43;36.38;;;20.20;;
52057;SDS011;38063;53.210;6.504;2022-10-31T07:18:10;30.65;;;18.98;;
52057;SDS011;38063;53.210;6.504;2022-10-31T07:20:37;35.05;;;19.52;;
52057;SDS011;38063;53.210;6.504;2022-10-31T07:23:02;37.25;;;20.77;;
52057;SDS011;38063;53.210;6.504;2022-10-31T07:25:28;33.75;;;19.00;;
52057;SDS011;38063;53.210;6.504;2022-10-31T07:27:54;34.90;;;20.85;;
52057;SDS011;38063;53.210;6.504;2022-10-31T07:30:20;37.10;;;20.58;;
52057;SDS011;38063;53.210;6.504;2022-10-31T07:32:46;34.10;;;20.27;;
52057;SDS011;38063;53.210;6.504;2022-10-31T07:35:20;36.17;;;21.45;;
52057;SDS011;38063;53.210;6.504;2022-10-31T07:37:48;42.08;;;23.67;;
52057;SDS011;38063;53.210;6.504;2022-10-31T07:40:14;37.78;;;21.30;;
52057;SDS011;38063;53.210;6.504;2022-10-31T07:42:42;38.58;;;22.85;;
52057;SDS011;38063;53.210;6.504;2022-10-31T07:45:09;40.53;;;23.00;;
52057;SDS011;38063;53.210;6.504;2022-10-31T07:47:43;39.63;;;22.27;;
52057;SDS011;38063;53.210;6.504;2022-10-31T07:50:11;42.00;;;23.70;;
52057;SDS011;38063;53.210;6.504;2022-10-31T07:52:38;41.17;;;24.70;;
52057;SDS011;38063;53.210;6.504;2022-10-31T07:55:04;49.08;;;27.35;;
52057;SDS011;38063;53.210;6.504;2022-10-31T07:57:31;53.30;;;28.70;;
52057;SDS011;38063;53.210;6.504;2022-10-31T07:59:57;48.10;;;27.05;;
52057;SDS011;38063;53.210;6.504;2022-10-31T08:02:23;61.00;;;29.83;;
52057;SDS011;38063;53.210;6.504;2022-10-31T08:04:49;62.38;;;31.98;;
52057;SDS011;38063;53.210;6.504;2022-10-31T08:07:15;64.68;;;32.72;;
52057;SDS011;38063;53.210;6.504;2022-10-31T08:09:40;62.13;;;30.73;;
52057;SDS011;38063;53.210;6.504;2022-10-31T08:12:06;65.38;;;31.27;;
52057;SDS011;38063;53.210;6.504;2022-10-31T08:14:32;68.43;;;32.35;;
52057;SDS011;38063;53.210;6.504;2022-10-31T08:16:57;64.43;;;33.03;;
52057;SDS011;38063;53.210;6.504;2022-10-31T08:19:23;63.28;;;32.58;;
52057;SDS011;38063;53.210;6.504;2022-10-31T08:21:52;65.30;;;30.88;;
52057;SDS011;38063;53.210;6.504;2022-10-31T08:24:20;64.85;;;31.45;;
52057;SDS011;38063;53.210;6.504;2022-10-31T08:26:46;60.55;;;31.42;;
52057;SDS011;38063;53.210;6.504;2022-10-31T08:29:11;61.38;;;32.33;;
52057;SDS011;38063;53.210;6.504;2022-10-31T08:31:37;55.40;;;29.73;;
52057;SDS011;38063;53.210;6.504;2022-10-31T08:34:03;66.28;;;30.73;;
52057;SDS011;38063;53.210;6.504;2022-10-31T08:36:29;59.08;;;29.80;;
52057;SDS011;38063;53.210;6.504;2022-10-31T08:38:55;57.47;;;30.48;;
52057;SDS011;38063;53.210;6.504;2022-10-31T08:41:21;54.50;;;29.52;;
52057;SDS011;38063;53.210;6.504;2022-10-31T08:43:47;57.70;;;30.00;;
52057;SDS011;38063;53.210;6.504;2022-10-31T08:46:12;60.63;;;30.08;;
52057;SDS011;38063;53.210;6.504;2022-10-31T08:48:38;54.83;;;29.73;;
52057;SDS011;38063;53.210;6.504;2022-10-31T08:51:04;54.78;;;29.45;;
52057;SDS011;38063;53.210;6.504;2022-10-31T08:53:30;58.50;;;29.10;;
52057;SDS011;38063;53.210;6.504;2022-10-31T08:55:56;53.42;;;29.58;;
52057;SDS011;38063;53.210;6.504;2022-10-31T08:58:22;59.17;;;29.38;;
52057;SDS011;38063;53.210;6.504;2022-10-31T09:00:49;46.67;;;27.63;;
52057;SDS011;38063;53.210;6.504;2022-10-31T09:03:21;52.20;;;28.15;;
52057;SDS011;38063;53.210;6.504;2022-10-31T09:05:48;48.13;;;27.25;;
52057;SDS011;38063;53.210;6.504;2022-10-31T09:08:15;50.72;;;27.25;;
52057;SDS011;38063;53.210;6.504;2022-10-31T09:10:41;48.00;;;26.50;;
52057;SDS011;38063;53.210;6.504;2022-10-31T09:13:09;49.78;;;27.10;;
52057;SDS011;38063;53.210;6.504;2022-10-31T09:15:39;49.15;;;26.17;;
52057;SDS011;38063;53.210;6.504;2022-10-31T09:18:06;52.42;;;27.85;;
52057;SDS011;38063;53.210;6.504;2022-10-31T09:20:32;42.47;;;25.85;;
52057;SDS011;38063;53.210;6.504;2022-10-31T09:23:41;44.97;;;26.67;;
52057;SDS011;38063;53.210;6.504;2022-10-31T09:25:49;46.97;;;25.90;;
52057;SDS011;38063;53.210;6.504;2022-10-31T09:28:16;51.40;;;27.10;;
52057;SDS011;38063;53.210;6.504;2022-10-31T09:30:45;45.50;;;25.55;;
52057;SDS011;38063;53.210;6.504;2022-10-31T09:33:12;44.28;;;23.95;;
52057;SDS011;38063;53.210;6.504;2022-10-31T09:35:39;42.70;;;25.73;;
52057;SDS011;38063;53.210;6.504;2022-10-31T09:38:12;41.17;;;25.45;;
52057;SDS011;38063;53.210;6.504;2022-10-31T09:43:14;38.58;;;23.38;;
52057;SDS011;38063;53.210;6.504;2022-10-31T09:48:34;42.25;;;24.17;;
52057;SDS011;38063;53.210;6.504;2022-10-31T09:51:12;37.47;;;23.63;;
52057;SDS011;38063;53.210;6.504;2022-10-31T09:56:21;39.35;;;22.98;;
52057;SDS011;38063;53.210;6.504;2022-10-31T09:58:58;36.03;;;21.90;;
52057;SDS011;38063;53.210;6.504;2022-10-31T10:04:31;34.10;;;20.70;;
52057;SDS011;38063;53.210;6.504;2022-10-31T10:07:16;35.20;;;20.48;;
52057;SDS011;38063;53.210;6.504;2022-10-31T10:09:47;33.00;;;20.90;;
52057;SDS011;38063;53.210;6.504;2022-10-31T10:17:54;37.60;;;22.20;;
52057;SDS011;38063;53.210;6.504;2022-10-31T10:20:43;34.67;;;20.92;;
52057;SDS011;38063;53.210;6.504;2022-10-31T10:28:37;36.10;;;21.45;;
52057;SDS011;38063;53.210;6.504;2022-10-31T10:31:20;36.50;;;19.98;;
52057;SDS011;38063;53.210;6.504;2022-10-31T10:36:50;34.05;;;20.70;;
52057;SDS011;38063;53.210;6.504;2022-10-31T10:39:23;33.67;;;18.85;;
52057;SDS011;38063;53.210;6.504;2022-10-31T10:42:11;28.77;;;17.95;;
52057;SDS011;38063;53.210;6.504;2022-10-31T10:44:57;30.05;;;16.92;;
52057;SDS011;38063;53.210;6.504;2022-10-31T10:47:42;26.80;;;17.10;;
52057;SDS011;38063;53.210;6.504;2022-10-31T10:50:11;30.48;;;17.85;;
52057;SDS011;38063;53.210;6.504;2022-10-31T10:55:36;26.05;;;16.50;;
52057;SDS011;38063;53.210;6.504;2022-10-31T10:58:21;27.90;;;18.73;;
52057;SDS011;38063;53.210;6.504;2022-10-31T11:00:47;30.48;;;17.88;;
52057;SDS011;38063;53.210;6.504;2022-10-31T11:03:15;32.63;;;18.25;;
52057;SDS011;38063;53.210;6.504;2022-10-31T11:05:55;28.33;;;18.52;;
52057;SDS011;38063;53.210;6.504;2022-10-31T11:08:28;26.65;;;17.85;;
52057;SDS011;38063;53.210;6.504;2022-10-31T11:13:37;27.80;;;17.00;;
52057;SDS011;38063;53.210;6.504;2022-10-31T11:16:08;25.85;;;17.63;;
52057;SDS011;38063;53.210;6.504;2022-10-31T11:18:41;22.13;;;16.10;;
52057;SDS011;38063;53.210;6.504;2022-10-31T11:26:39;23.42;;;14.68;;
52057;SDS011;38063;53.210;6.504;2022-10-31T11:32:01;25.70;;;16.02;;
52057;SDS011;38063;53.210;6.504;2022-10-31T11:34:35;25.13;;;15.65;;
52057;SDS011;38063;53.210;6.504;2022-10-31T11:37:14;22.63;;;15.02;;
52057;SDS011;38063;53.210;6.504;2022-10-31T11:39:43;23.80;;;15.05;;
52057;SDS011;38063;53.210;6.504;2022-10-31T11:42:18;23.80;;;14.88;;
52057;SDS011;38063;53.210;6.504;2022-10-31T11:44:46;22.95;;;14.02;;
52057;SDS011;38063;53.210;6.504;2022-10-31T11:47:13;19.40;;;13.63;;
52057;SDS011;38063;53.210;6.504;2022-10-31T11:49:42;21.40;;;13.43;;
52057;SDS011;38063;53.210;6.504;2022-10-31T11:52:19;20.42;;;12.48;;
52057;SDS011;38063;53.210;6.504;2022-10-31T11:54:55;21.95;;;13.18;;
52057;SDS011;38063;53.210;6.504;2022-10-31T11:57:28;24.13;;;14.43;;
52057;SDS011;38063;53.210;6.504;2022-10-31T11:59:57;19.45;;;12.90;;
52057;SDS011;38063;53.210;6.504;2022-10-31T12:02:28;18.85;;;10.70;;
52057;SDS011;38063;53.210;6.504;2022-10-31T12:07:36;15.88;;;8.60;;
52057;SDS011;38063;53.210;6.504;2022-10-31T12:10:02;14.82;;;8.02;;
52057;SDS011;38063;53.210;6.504;2022-10-31T12:12:38;15.95;;;9.07;;
52057;SDS011;38063;53.210;6.504;2022-10-31T12:18:01;16.38;;;9.05;;
52057;SDS011;38063;53.210;6.504;2022-10-31T12:25:53;11.25;;;7.57;;
52057;SDS011;38063;53.210;6.504;2022-10-31T12:28:40;10.60;;;7.28;;
52057;SDS011;38063;53.210;6.504;2022-10-31T12:34:40;13.10;;;6.60;;
52057;SDS011;38063;53.210;6.504;2022-10-31T12:46:00;10.40;;;4.88;;
52057;SDS011;38063;53.210;6.504;2022-10-31T12:48:41;10.02;;;5.05;;
52057;SDS011;38063;53.210;6.504;2022-10-31T13:02:09;11.38;;;4.75;;
52057;SDS011;38063;53.210;6.504;2022-10-31T13:04:42;11.88;;;4.80;;
52057;SDS011;38063;53.210;6.504;2022-10-31T13:07:25;11.60;;;4.85;;
52057;SDS011;38063;53.210;6.504;2022-10-31T13:10:30;11.40;;;5.13;;
52057;SDS011;38063;53.210;6.504;2022-10-31T13:13:20;11.68;;;5.35;;
52057;SDS011;38063;53.210;6.504;2022-10-31T13:15:53;12.55;;;5.75;;
52057;SDS011;38063;53.210;6.504;2022-10-31T13:18:33;13.30;;;5.03;;
52057;SDS011;38063;53.210;6.504;2022-10-31T13:21:10;10.35;;;4.70;;
52057;SDS011;38063;53.210;6.504;2022-10-31T13:23:41;13.32;;;4.47;;
52057;SDS011;38063;53.210;6.504;2022-10-31T13:26:14;14.30;;;4.55;;
52057;SDS011;38063;53.210;6.504;2022-10-31T13:28:48;10.32;;;4.40;;
52057;SDS011;38063;53.210;6.504;2022-10-31T13:31:30;10.02;;;4.00;;
52057;SDS011;38063;53.210;6.504;2022-10-31T13:33:57;12.30;;;4.65;;
52057;SDS011;38063;53.210;6.504;2022-10-31T13:36:41;12.68;;;4.60;;
52057;SDS011;38063;53.210;6.504;2022-10-31T13:42:20;10.68;;;3.83;;
52057;SDS011;38063;53.210;6.504;2022-10-31T13:44:50;9.23;;;3.60;;
52057;SDS011;38063;53.210;6.504;2022-10-31T13:47:23;8.70;;;4.28;;
52057;SDS011;38063;53.210;6.504;2022-10-31T13:50:19;10.55;;;4.10;;
52057;SDS011;38063;53.210;6.504;2022-10-31T13:52:47;8.43;;;3.78;;
52057;SDS011;38063;53.210;6.504;2022-10-31T13:58:04;7.10;;;3.78;;
52057;SDS011;38063;53.210;6.504;2022-10-31T14:00:44;11.70;;;3.83;;
52057;SDS011;38063;53.210;6.504;2022-10-31T14:03:17;10.90;;;4.00;;
52057;SDS011;38063;53.210;6.504;2022-10-31T14:05:44;9.85;;;4.55;;
52057;SDS011;38063;53.210;6.504;2022-10-31T14:08:18;12.57;;;4.20;;
52057;SDS011;38063;53.210;6.504;2022-10-31T14:10:48;11.23;;;4.03;;
52057;SDS011;38063;53.210;6.504;2022-10-31T14:13:19;15.75;;;4.65;;
52057;SDS011;38063;53.210;6.504;2022-10-31T14:15:56;8.82;;;4.13;;
52057;SDS011;38063;53.210;6.504;2022-10-31T14:18:31;10.30;;;4.13;;
52057;SDS011;38063;53.210;6.504;2022-10-31T14:20:57;13.32;;;4.00;;
52057;SDS011;38063;53.210;6.504;2022-10-31T14:23:39;10.85;;;4.10;;
52057;SDS011;38063;53.210;6.504;2022-10-31T14:26:21;11.10;;;4.40;;
52057;SDS011;38063;53.210;6.504;2022-10-31T14:28:58;7.97;;;3.88;;
52057;SDS011;38063;53.210;6.504;2022-10-31T14:42:31;8.50;;;4.40;;
52057;SDS011;38063;53.210;6.504;2022-10-31T14:45:31;16.15;;;5.78;;
52057;SDS011;38063;53.210;6.504;2022-10-31T14:50:39;11.02;;;4.10;;
52057;SDS011;38063;53.210;6.504;2022-10-31T14:53:09;12.80;;;4.03;;
52057;SDS011;38063;53.210;6.504;2022-10-31T14:55:57;11.02;;;3.85;;
52057;SDS011;38063;53.210;6.504;2022-10-31T14:58:35;6.75;;;3.67;;
52057;SDS011;38063;53.210;6.504;2022-10-31T15:01:26;15.68;;;4.50;;
52057;SDS011;38063;53.210;6.504;2022-10-31T15:04:12;11.13;;;4.28;;
52057;SDS011;38063;53.210;6.504;2022-10-31T15:06:42;12.30;;;4.10;;
52057;SDS011;38063;53.210;6.504;2022-10-31T15:09:21;9.82;;;4.50;;
52057;SDS011;38063;53.210;6.504;2022-10-31T15:11:46;10.95;;;4.43;;
52057;SDS011;38063;53.210;6.504;2022-10-31T15:14:28;15.45;;;4.90;;
52057;SDS011;38063;53.210;6.504;2022-10-31T15:16:59;12.27;;;5.03;;
52057;SDS011;38063;53.210;6.504;2022-10-31T15:19:28;13.73;;;5.25;;
52057;SDS011;38063;53.210;6.504;2022-10-31T15:21:56;15.55;;;5.43;;
52057;SDS011;38063;53.210;6.504;2022-10-31T15:24:23;14.70;;;6.07;;
52057;SDS011;38063;53.210;6.504;2022-10-31T15:26:53;14.73;;;5.88;;
52057;SDS011;38063;53.210;6.504;2022-10-31T15:29:21;12.90;;;5.47;;
52057;SDS011;38063;53.210;6.504;2022-10-31T15:31:49;13.27;;;5.38;;
52057;SDS011;38063;53.210;6.504;2022-10-31T15:34:27;17.33;;;5.97;;
52057;SDS011;38063;53.210;6.504;2022-10-31T15:37:03;11.70;;;5.95;;
52057;SDS011;38063;53.210;6.504;2022-10-31T15:39:28;15.27;;;5.60;;
52057;SDS011;38063;53.210;6.504;2022-10-31T15:41:58;18.20;;;5.90;;
52057;SDS011;38063;53.210;6.504;2022-10-31T15:44:25;13.13;;;5.97;;
52057;SDS011;38063;53.210;6.504;2022-10-31T15:46:57;13.25;;;5.72;;
52057;SDS011;38063;53.210;6.504;2022-10-31T15:49:41;13.25;;;6.45;;
52057;SDS011;38063;53.210;6.504;2022-10-31T15:55:02;20.45;;;7.57;;
52057;SDS011;38063;53.210;6.504;2022-10-31T15:57:30;14.40;;;6.35;;
52057;SDS011;38063;53.210;6.504;2022-10-31T15:59:57;18.17;;;8.05;;
52057;SDS011;38063;53.210;6.504;2022-10-31T16:02:25;15.02;;;7.43;;
52057;SDS011;38063;53.210;6.504;2022-10-31T16:04:56;20.33;;;9.77;;
52057;SDS011;38063;53.210;6.504;2022-10-31T16:07:24;22.20;;;9.50;;
52057;SDS011;38063;53.210;6.504;2022-10-31T16:12:22;20.58;;;9.25;;
52057;SDS011;38063;53.210;6.504;2022-10-31T16:14:50;20.15;;;8.65;;
52057;SDS011;38063;53.210;6.504;2022-10-31T16:17:18;16.35;;;8.38;;
52057;SDS011;38063;53.210;6.504;2022-10-31T16:19:52;13.57;;;7.82;;
52057;SDS011;38063;53.210;6.504;2022-10-31T16:22:33;15.50;;;8.18;;
52057;SDS011;38063;53.210;6.504;2022-10-31T16:25:43;18.63;;;8.77;;
52057;SDS011;38063;53.210;6.504;2022-10-31T16:27:52;17.00;;;9.25;;
52057;SDS011;38063;53.210;6.504;2022-10-31T16:30:30;17.50;;;9.27;;
52057;SDS011;38063;53.210;6.504;2022-10-31T16:36:01;12.95;;;8.10;;
52057;SDS011;38063;53.210;6.504;2022-10-31T16:38:52;15.82;;;7.68;;
52057;SDS011;38063;53.210;6.504;2022-10-31T16:41:22;16.55;;;8.52;;
52057;SDS011;38063;53.210;6.504;2022-10-31T16:43:49;15.27;;;7.43;;
52057;SDS011;38063;53.210;6.504;2022-10-31T16:46:15;16.58;;;8.00;;
52057;SDS011;38063;53.210;6.504;2022-10-31T16:48:50;16.85;;;7.97;;
52057;SDS011;38063;53.210;6.504;2022-10-31T16:51:17;16.70;;;8.55;;
52057;SDS011;38063;53.210;6.504;2022-10-31T16:53:42;13.50;;;7.63;;
52057;SDS011;38063;53.210;6.504;2022-10-31T16:56:13;16.58;;;7.60;;
52057;SDS011;38063;53.210;6.504;2022-10-31T16:58:41;15.23;;;8.60;;
52057;SDS011;38063;53.210;6.504;2022-10-31T17:01:08;15.93;;;7.60;;
52057;SDS011;38063;53.210;6.504;2022-10-31T17:03:33;16.02;;;8.27;;
52057;SDS011;38063;53.210;6.504;2022-10-31T17:05:59;18.20;;;8.27;;